sensor_id;sensor_type;location;lat;lon;timestamp;pressure;altitude;pressure_sealevel;temperature;humidity
24996;BME280;13016;52.162;21.034;2023-02-12T00:02:08;101656.42;;;7.64;51.38
24996;BME280;13016;52.162;21.034;2023-02-12T00:04:34;101662.54;;;7.71;51.39
24996;BME280;13016;52.162;21.034;2023-02-12T00:07:00;101662.00;;;7.59;51.37
24996;BME280;13016;52.162;21.034;2023-02-12T00:09:25;101660.22;;;7.48;51.44
24996;BME280;13016;52.162;21.034;2023-02-12T00:11:50;101666.16;;;7.36;51.34
24996;BME280;13016;52.162;21.034;2023-02-12T00:14:16;101676.80;;;7.12;51.42
24996;BME280;13016;52.162;21.034;2023-02-12T00:16:42;101690.07;;;7.15;51.69
24996;BME280;13016;52.162;21.034;2023-02-12T00:19:08;101699.99;;;7.11;51.62
24996;BME280;13016;52.162;21.034;2023-02-12T00:21:33;101696.69;;;7.11;51.57
24996;BME280;13016;52.162;21.034;2023-02-12T00:23:59;101700.56;;;7.23;51.67
24996;BME280;13016;52.162;21.034;2023-02-12T00:26:24;101708.60;;;7.31;51.73
24996;BME280;13016;52.162;21.034;2023-02-12T00:28:50;101718.08;;;7.25;51.49
24996;BME280;13016;52.162;21.034;2023-02-12T00:31:18;101723.84;;;7.25;51.69
24996;BME280;13016;52.162;21.034;2023-02-12T00:33:44;101730.84;;;7.26;51.55
24996;BME280;13016;52.162;21.034;2023-02-12T00:36:13;101728.46;;;7.10;51.71
24996;BME280;13016;52.162;21.034;2023-02-12T00:38:39;101718.60;;;7.18;51.83
24996;BME280;13016;52.162;21.034;2023-02-12T00:41:04;101729.40;;;7.14;51.50
24996;BME280;13016;52.162;21.034;2023-02-12T00:43:29;101727.65;;;7.21;51.17
24996;BME280;13016;52.162;21.034;2023-02-12T00:45:54;101734.60;;;7.24;50.98
24996;BME280;13016;52.162;21.034;2023-02-12T00:48:20;101728.61;;;7.17;50.83
24996;BME280;13016;52.162;21.034;2023-02-12T00:50:46;101729.48;;;7.11;50.85
24996;BME280;13016;52.162;21.034;2023-02-12T00:53:12;101734.68;;;7.20;50.91
24996;BME280;13016;52.162;21.034;2023-02-12T00:55:37;101740.48;;;7.13;50.67
24996;BME280;13016;52.162;21.034;2023-02-12T00:58:02;101744.15;;;7.21;50.92
24996;BME280;13016;52.162;21.034;2023-02-12T01:00:28;101749.06;;;7.28;50.64
24996;BME280;13016;52.162;21.034;2023-02-12T01:02:53;101758.72;;;7.41;50.82
24996;BME280;13016;52.162;21.034;2023-02-12T01:05:18;101764.34;;;7.47;50.60
24996;BME280;13016;52.162;21.034;2023-02-12T01:07:49;101765.89;;;7.48;50.45
24996;BME280;13016;52.162;21.034;2023-02-12T01:10:14;101767.48;;;7.55;50.73
24996;BME280;13016;52.162;21.034;2023-02-12T01:12:40;101770.05;;;7.50;50.41
24996;BME280;13016;52.162;21.034;2023-02-12T01:15:05;101770.23;;;7.50;50.64
24996;BME280;13016;52.162;21.034;2023-02-12T01:17:32;101781.48;;;7.50;50.58
24996;BME280;13016;52.162;21.034;2023-02-12T01:19:58;101789.24;;;7.55;50.82
24996;BME280;13016;52.162;21.034;2023-02-12T01:22:23;101787.57;;;7.59;50.92
24996;BME280;13016;52.162;21.034;2023-02-12T01:24:49;101789.48;;;7.66;50.76
24996;BME280;13016;52.162;21.034;2023-02-12T01:27:14;101793.13;;;7.61;50.49
24996;BME280;13016;52.162;21.034;2023-02-12T01:29:39;101797.30;;;7.63;50.63
24996;BME280;13016;52.162;21.034;2023-02-12T01:32:05;101800.94;;;7.58;50.44
24996;BME280;13016;52.162;21.034;2023-02-12T01:34:30;101806.42;;;7.76;50.38
24996;BME280;13016;52.162;21.034;2023-02-12T01:36:55;101805.80;;;7.79;49.44
24996;BME280;13016;52.162;21.034;2023-02-12T01:39:20;101815.85;;;7.78;49.31
24996;BME280;13016;52.162;21.034;2023-02-12T01:41:45;101810.11;;;7.56;48.84
24996;BME280;13016;52.162;21.034;2023-02-12T01:46:43;101811.69;;;7.49;48.38
24996;BME280;13016;52.162;21.034;2023-02-12T01:49:13;101814.12;;;7.37;48.30
24996;BME280;13016;52.162;21.034;2023-02-12T01:51:43;101822.73;;;7.23;48.39
24996;BME280;13016;52.162;21.034;2023-02-12T01:54:10;101827.84;;;7.29;48.52
24996;BME280;13016;52.162;21.034;2023-02-12T01:56:38;101820.60;;;7.23;48.30
24996;BME280;13016;52.162;21.034;2023-02-12T01:59:04;101821.83;;;7.09;48.29
24996;BME280;13016;52.162;21.034;2023-02-12T02:01:30;101828.83;;;7.10;48.23
24996;BME280;13016;52.162;21.034;2023-02-12T02:04:01;101837.14;;;7.21;48.18
24996;BME280;13016;52.162;21.034;2023-02-12T02:06:35;101840.29;;;7.36;48.00
24996;BME280;13016;52.162;21.034;2023-02-12T02:09:03;101845.48;;;7.33;48.03
24996;BME280;13016;52.162;21.034;2023-02-12T02:11:28;101841.52;;;7.30;47.89
24996;BME280;13016;52.162;21.034;2023-02-12T02:13:54;101847.20;;;7.34;48.06
24996;BME280;13016;52.162;21.034;2023-02-12T02:16:24;101853.25;;;7.30;47.83
24996;BME280;13016;52.162;21.034;2023-02-12T02:19:08;101862.40;;;7.23;47.86
24996;BME280;13016;52.162;21.034;2023-02-12T02:22:15;101870.14;;;7.22;47.78
24996;BME280;13016;52.162;21.034;2023-02-12T02:27:31;101877.41;;;7.33;47.87
24996;BME280;13016;52.162;21.034;2023-02-12T02:35:45;101897.63;;;7.53;47.75
24996;BME280;13016;52.162;21.034;2023-02-12T02:38:18;101907.70;;;7.51;47.49
24996;BME280;13016;52.162;21.034;2023-02-12T02:41:01;101909.20;;;7.54;47.62
24996;BME280;13016;52.162;21.034;2023-02-12T02:43:32;101906.95;;;7.46;47.17
24996;BME280;13016;52.162;21.034;2023-02-12T02:46:05;101920.89;;;7.35;47.07
24996;BME280;13016;52.162;21.034;2023-02-12T02:48:38;101920.34;;;7.37;47.19
24996;BME280;13016;52.162;21.034;2023-02-12T02:51:13;101916.27;;;7.38;47.19
24996;BME280;13016;52.162;21.034;2023-02-12T02:53:47;101921.42;;;7.50;47.38
24996;BME280;13016;52.162;21.034;2023-02-12T02:56:16;101929.88;;;7.49;47.00
24996;BME280;13016;52.162;21.034;2023-02-12T02:58:48;101940.98;;;7.40;46.77
24996;BME280;13016;52.162;21.034;2023-02-12T03:01:26;101943.91;;;7.35;46.91
24996;BME280;13016;52.162;21.034;2023-02-12T03:04:02;101948.75;;;7.46;47.19
24996;BME280;13016;52.162;21.034;2023-02-12T03:06:35;101952.77;;;7.39;46.60
24996;BME280;13016;52.162;21.034;2023-02-12T03:09:08;101965.33;;;7.27;46.83
24996;BME280;13016;52.162;21.034;2023-02-12T03:11:37;101982.02;;;7.26;46.74
24996;BME280;13016;52.162;21.034;2023-02-12T03:14:14;101987.27;;;7.27;46.79
24996;BME280;13016;52.162;21.034;2023-02-12T03:16:48;101994.30;;;7.18;46.62
24996;BME280;13016;52.162;21.034;2023-02-12T03:19:19;102001.16;;;7.26;46.95
24996;BME280;13016;52.162;21.034;2023-02-12T03:21:49;102010.39;;;7.28;46.77
24996;BME280;13016;52.162;21.034;2023-02-12T03:24:38;102019.45;;;7.24;46.79
24996;BME280;13016;52.162;21.034;2023-02-12T03:27:11;102022.20;;;7.35;47.10
24996;BME280;13016;52.162;21.034;2023-02-12T03:29:38;102020.33;;;7.32;46.51
24996;BME280;13016;52.162;21.034;2023-02-12T03:34:57;102030.57;;;7.53;46.96
24996;BME280;13016;52.162;21.034;2023-02-12T03:37:39;102029.43;;;7.56;46.67
24996;BME280;13016;52.162;21.034;2023-02-12T03:48:13;102065.60;;;7.16;46.41
24996;BME280;13016;52.162;21.034;2023-02-12T03:53:15;102074.43;;;7.22;46.20
24996;BME280;13016;52.162;21.034;2023-02-12T03:55:44;102074.27;;;7.21;46.14
24996;BME280;13016;52.162;21.034;2023-02-12T03:58:15;102068.15;;;7.21;46.21
24996;BME280;13016;52.162;21.034;2023-02-12T04:00:43;102069.92;;;7.27;46.45
24996;BME280;13016;52.162;21.034;2023-02-12T04:03:09;102076.67;;;7.32;46.45
24996;BME280;13016;52.162;21.034;2023-02-12T04:05:34;102082.41;;;7.36;46.49
24996;BME280;13016;52.162;21.034;2023-02-12T04:08:08;102082.55;;;7.36;46.74
24996;BME280;13016;52.162;21.034;2023-02-12T04:10:40;102083.45;;;7.44;46.58
24996;BME280;13016;52.162;21.034;2023-02-12T04:13:41;102077.14;;;7.35;46.01
24996;BME280;13016;52.162;21.034;2023-02-12T04:16:21;102083.83;;;7.26;46.29
24996;BME280;13016;52.162;21.034;2023-02-12T04:18:49;102081.84;;;7.28;46.46
24996;BME280;13016;52.162;21.034;2023-02-12T04:26:30;102093.27;;;7.28;46.49
24996;BME280;13016;52.162;21.034;2023-02-12T04:29:18;102098.73;;;7.26;46.48
24996;BME280;13016;52.162;21.034;2023-02-12T04:34:34;102104.59;;;7.40;46.86
24996;BME280;13016;52.162;21.034;2023-02-12T04:37:06;102104.48;;;7.37;46.36
24996;BME280;13016;52.162;21.034;2023-02-12T04:39:36;102105.77;;;7.34;46.30
24996;BME280;13016;52.162;21.034;2023-02-12T04:42:03;102104.40;;;7.15;46.50
24996;BME280;13016;52.162;21.034;2023-02-12T04:44:31;102112.05;;;7.19;46.63
24996;BME280;13016;52.162;21.034;2023-02-12T04:46:57;102108.76;;;7.16;46.57
24996;BME280;13016;52.162;21.034;2023-02-12T04:49:23;102107.32;;;7.00;46.09
24996;BME280;13016;52.162;21.034;2023-02-12T04:51:50;102112.84;;;7.15;46.71
24996;BME280;13016;52.162;21.034;2023-02-12T04:54:17;102118.66;;;7.31;46.88
24996;BME280;13016;52.162;21.034;2023-02-12T04:56:43;102118.64;;;7.40;46.95
24996;BME280;13016;52.162;21.034;2023-02-12T04:59:08;102119.02;;;7.47;47.27
24996;BME280;13016;52.162;21.034;2023-02-12T05:01:35;102123.05;;;7.48;46.71
24996;BME280;13016;52.162;21.034;2023-02-12T05:04:01;102133.10;;;7.37;46.71
24996;BME280;13016;52.162;21.034;2023-02-12T05:06:29;102142.48;;;7.42;47.25
24996;BME280;13016;52.162;21.034;2023-02-12T05:08:55;102145.98;;;7.25;46.76
24996;BME280;13016;52.162;21.034;2023-02-12T05:11:21;102147.69;;;7.18;46.68
24996;BME280;13016;52.162;21.034;2023-02-12T05:13:50;102151.41;;;7.16;46.73
24996;BME280;13016;52.162;21.034;2023-02-12T05:16:16;102155.37;;;7.12;46.61
24996;BME280;13016;52.162;21.034;2023-02-12T05:18:42;102157.77;;;7.04;46.72
24996;BME280;13016;52.162;21.034;2023-02-12T05:21:07;102164.55;;;7.18;46.73
24996;BME280;13016;52.162;21.034;2023-02-12T05:23:35;102171.90;;;7.18;46.50
24996;BME280;13016;52.162;21.034;2023-02-12T05:26:04;102178.80;;;7.25;46.56
24996;BME280;13016;52.162;21.034;2023-02-12T05:28:29;102182.79;;;7.09;46.49
24996;BME280;13016;52.162;21.034;2023-02-12T05:30:59;102188.09;;;7.17;46.87
24996;BME280;13016;52.162;21.034;2023-02-12T05:33:24;102188.80;;;7.26;46.63
24996;BME280;13016;52.162;21.034;2023-02-12T05:35:50;102192.17;;;7.33;46.48
24996;BME280;13016;52.162;21.034;2023-02-12T05:38:15;102197.75;;;7.26;46.33
24996;BME280;13016;52.162;21.034;2023-02-12T05:40:40;102207.42;;;7.34;46.49
24996;BME280;13016;52.162;21.034;2023-02-12T05:43:05;102205.91;;;7.22;46.00
24996;BME280;13016;52.162;21.034;2023-02-12T05:45:31;102210.23;;;7.15;46.55
24996;BME280;13016;52.162;21.034;2023-02-12T05:47:57;102213.56;;;7.05;46.46
24996;BME280;13016;52.162;21.034;2023-02-12T05:50:22;102218.02;;;7.12;46.74
24996;BME280;13016;52.162;21.034;2023-02-12T05:52:47;102225.99;;;7.07;47.13
24996;BME280;13016;52.162;21.034;2023-02-12T05:55:13;102229.11;;;7.29;47.26
24996;BME280;13016;52.162;21.034;2023-02-12T05:57:38;102228.21;;;7.31;46.97
24996;BME280;13016;52.162;21.034;2023-02-12T06:00:07;102232.14;;;7.36;46.78
24996;BME280;13016;52.162;21.034;2023-02-12T06:02:33;102242.10;;;7.39;46.41
24996;BME280;13016;52.162;21.034;2023-02-12T06:04:59;102246.48;;;7.29;45.59
24996;BME280;13016;52.162;21.034;2023-02-12T06:07:24;102249.29;;;7.30;46.05
24996;BME280;13016;52.162;21.034;2023-02-12T06:09:50;102256.45;;;7.31;46.09
24996;BME280;13016;52.162;21.034;2023-02-12T06:12:15;102265.92;;;7.32;46.21
24996;BME280;13016;52.162;21.034;2023-02-12T06:14:41;102267.44;;;7.36;46.74
24996;BME280;13016;52.162;21.034;2023-02-12T06:17:07;102269.23;;;7.34;46.70
24996;BME280;13016;52.162;21.034;2023-02-12T06:19:32;102276.54;;;7.27;46.10
24996;BME280;13016;52.162;21.034;2023-02-12T06:21:58;102279.75;;;7.24;46.07
24996;BME280;13016;52.162;21.034;2023-02-12T06:24:23;102285.51;;;7.17;45.76
24996;BME280;13016;52.162;21.034;2023-02-12T06:26:50;102291.80;;;7.18;46.42
24996;BME280;13016;52.162;21.034;2023-02-12T06:29:16;102297.16;;;7.23;46.33
24996;BME280;13016;52.162;21.034;2023-02-12T06:31:41;102296.90;;;7.16;46.16
24996;BME280;13016;52.162;21.034;2023-02-12T06:34:08;102293.76;;;7.16;45.55
24996;BME280;13016;52.162;21.034;2023-02-12T06:36:39;102292.77;;;7.22;46.18
24996;BME280;13016;52.162;21.034;2023-02-12T06:39:05;102300.61;;;7.26;46.16
24996;BME280;13016;52.162;21.034;2023-02-12T06:41:31;102301.58;;;7.31;46.31
24996;BME280;13016;52.162;21.034;2023-02-12T06:43:56;102302.48;;;7.40;46.42
24996;BME280;13016;52.162;21.034;2023-02-12T06:46:22;102298.92;;;7.32;45.73
24996;BME280;13016;52.162;21.034;2023-02-12T06:48:47;102298.09;;;7.40;46.55
24996;BME280;13016;52.162;21.034;2023-02-12T06:51:17;102301.98;;;7.47;45.98
24996;BME280;13016;52.162;21.034;2023-02-12T06:53:43;102304.41;;;7.41;45.92
24996;BME280;13016;52.162;21.034;2023-02-12T06:56:10;102307.52;;;7.44;46.30
24996;BME280;13016;52.162;21.034;2023-02-12T06:58:36;102304.18;;;7.52;46.49
24996;BME280;13016;52.162;21.034;2023-02-12T07:01:10;102306.80;;;7.64;46.64
24996;BME280;13016;52.162;21.034;2023-02-12T07:03:36;102313.73;;;7.69;45.98
24996;BME280;13016;52.162;21.034;2023-02-12T07:06:02;102313.80;;;7.74;45.36
24996;BME280;13016;52.162;21.034;2023-02-12T07:08:27;102315.48;;;7.77;45.33
24996;BME280;13016;52.162;21.034;2023-02-12T07:10:53;102319.43;;;7.83;45.16
24996;BME280;13016;52.162;21.034;2023-02-12T07:13:18;102321.64;;;7.87;44.66
24996;BME280;13016;52.162;21.034;2023-02-12T07:15:43;102322.03;;;7.85;44.42
24996;BME280;13016;52.162;21.034;2023-02-12T07:18:08;102320.95;;;7.67;43.58
24996;BME280;13016;52.162;21.034;2023-02-12T07:20:34;102328.73;;;7.55;44.04
24996;BME280;13016;52.162;21.034;2023-02-12T07:22:59;102333.08;;;7.57;44.43
24996;BME280;13016;52.162;21.034;2023-02-12T07:25:24;102331.99;;;7.69;44.54
24996;BME280;13016;52.162;21.034;2023-02-12T07:27:49;102331.20;;;7.75;44.27
24996;BME280;13016;52.162;21.034;2023-02-12T07:30:15;102335.20;;;7.85;44.63
24996;BME280;13016;52.162;21.034;2023-02-12T07:32:40;102338.96;;;7.91;43.91
24996;BME280;13016;52.162;21.034;2023-02-12T07:35:05;102338.74;;;8.02;44.45
24996;BME280;13016;52.162;21.034;2023-02-12T07:37:32;102337.90;;;8.19;44.28
24996;BME280;13016;52.162;21.034;2023-02-12T07:39:58;102334.98;;;8.25;43.47
24996;BME280;13016;52.162;21.034;2023-02-12T07:42:23;102335.27;;;8.27;43.48
24996;BME280;13016;52.162;21.034;2023-02-12T07:44:48;102336.36;;;8.35;43.06
24996;BME280;13016;52.162;21.034;2023-02-12T07:47:14;102334.30;;;8.33;43.09
24996;BME280;13016;52.162;21.034;2023-02-12T07:49:40;102333.83;;;8.55;43.26
24996;BME280;13016;52.162;21.034;2023-02-12T07:52:05;102336.74;;;8.74;43.10
24996;BME280;13016;52.162;21.034;2023-02-12T07:54:30;102344.61;;;8.76;43.14
24996;BME280;13016;52.162;21.034;2023-02-12T07:56:55;102342.93;;;8.81;42.58
24996;BME280;13016;52.162;21.034;2023-02-12T07:59:21;102339.31;;;8.78;42.56
24996;BME280;13016;52.162;21.034;2023-02-12T08:01:48;102346.95;;;9.12;41.79
24996;BME280;13016;52.162;21.034;2023-02-12T08:04:17;102355.83;;;9.45;41.76
24996;BME280;13016;52.162;21.034;2023-02-12T08:06:45;102356.87;;;9.79;40.96
24996;BME280;13016;52.162;21.034;2023-02-12T08:09:19;102364.00;;;10.02;40.43
24996;BME280;13016;52.162;21.034;2023-02-12T08:11:45;102366.02;;;10.26;40.36
24996;BME280;13016;52.162;21.034;2023-02-12T08:14:13;102366.91;;;10.44;39.44
24996;BME280;13016;52.162;21.034;2023-02-12T08:16:41;102368.17;;;10.11;39.31
24996;BME280;13016;52.162;21.034;2023-02-12T08:19:07;102373.09;;;10.13;39.36
24996;BME280;13016;52.162;21.034;2023-02-12T08:21:32;102380.09;;;10.52;39.79
24996;BME280;13016;52.162;21.034;2023-02-12T08:23:58;102375.06;;;10.61;39.14
24996;BME280;13016;52.162;21.034;2023-02-12T08:26:26;102382.73;;;11.04;39.96
24996;BME280;13016;52.162;21.034;2023-02-12T08:28:58;102383.52;;;11.25;38.36
24996;BME280;13016;52.162;21.034;2023-02-12T08:31:26;102385.34;;;11.55;37.86
24996;BME280;13016;52.162;21.034;2023-02-12T08:33:53;102384.63;;;11.12;36.51
24996;BME280;13016;52.162;21.034;2023-02-12T08:36:24;102378.83;;;10.41;38.37
24996;BME280;13016;52.162;21.034;2023-02-12T08:38:50;102381.90;;;10.86;38.84
24996;BME280;13016;52.162;21.034;2023-02-12T08:41:24;102384.48;;;11.21;37.42
24996;BME280;13016;52.162;21.034;2023-02-12T08:43:52;102381.66;;;11.43;37.50
24996;BME280;13016;52.162;21.034;2023-02-12T08:46:23;102386.65;;;11.47;37.07
24996;BME280;13016;52.162;21.034;2023-02-12T08:48:52;102383.59;;;11.54;37.17
24996;BME280;13016;52.162;21.034;2023-02-12T08:51:20;102380.89;;;11.40;36.89
24996;BME280;13016;52.162;21.034;2023-02-12T08:53:50;102377.89;;;11.67;36.95
24996;BME280;13016;52.162;21.034;2023-02-12T08:56:16;102378.96;;;11.87;37.64
24996;BME280;13016;52.162;21.034;2023-02-12T08:58:42;102384.84;;;12.21;36.65
24996;BME280;13016;52.162;21.034;2023-02-12T09:01:10;102379.27;;;11.98;35.79
24996;BME280;13016;52.162;21.034;2023-02-12T09:03:36;102376.38;;;11.85;36.59
24996;BME280;13016;52.162;21.034;2023-02-12T09:06:02;102385.63;;;11.84;38.08
24996;BME280;13016;52.162;21.034;2023-02-12T09:08:28;102390.77;;;11.78;37.28
24996;BME280;13016;52.162;21.034;2023-02-12T09:10:54;102386.98;;;11.75;37.09
24996;BME280;13016;52.162;21.034;2023-02-12T09:13:19;102384.64;;;11.86;37.45
24996;BME280;13016;52.162;21.034;2023-02-12T09:15:44;102386.95;;;11.54;36.74
24996;BME280;13016;52.162;21.034;2023-02-12T09:18:12;102394.77;;;11.47;37.83
24996;BME280;13016;52.162;21.034;2023-02-12T09:20:40;102395.98;;;11.75;37.97
24996;BME280;13016;52.162;21.034;2023-02-12T09:23:06;102396.48;;;11.49;37.37
24996;BME280;13016;52.162;21.034;2023-02-12T09:25:32;102389.61;;;11.43;37.57
24996;BME280;13016;52.162;21.034;2023-02-12T09:27:57;102395.42;;;11.38;37.59
24996;BME280;13016;52.162;21.034;2023-02-12T09:30:23;102403.11;;;11.52;38.38
24996;BME280;13016;52.162;21.034;2023-02-12T09:32:48;102416.03;;;11.51;38.10
24996;BME280;13016;52.162;21.034;2023-02-12T09:35:13;102415.34;;;11.51;38.29
24996;BME280;13016;52.162;21.034;2023-02-12T09:37:38;102416.80;;;11.16;37.93
24996;BME280;13016;52.162;21.034;2023-02-12T09:40:05;102417.13;;;10.94;39.11
24996;BME280;13016;52.162;21.034;2023-02-12T09:45:37;102422.41;;;10.59;39.62
24996;BME280;13016;52.162;21.034;2023-02-12T09:48:59;102426.45;;;10.67;39.00
24996;BME280;13016;52.162;21.034;2023-02-12T09:51:28;102434.19;;;10.48;39.35
24996;BME280;13016;52.162;21.034;2023-02-12T09:56:29;102443.52;;;9.82;40.22
24996;BME280;13016;52.162;21.034;2023-02-12T09:58:59;102446.08;;;9.92;40.31
24996;BME280;13016;52.162;21.034;2023-02-12T10:01:26;102437.12;;;10.05;40.35
24996;BME280;13016;52.162;21.034;2023-02-12T10:03:52;102439.64;;;9.75;39.94
24996;BME280;13016;52.162;21.034;2023-02-12T10:06:21;102442.76;;;9.70;40.48
24996;BME280;13016;52.162;21.034;2023-02-12T10:12:13;102436.72;;;9.79;40.69
24996;BME280;13016;52.162;21.034;2023-02-12T10:25:43;102420.17;;;9.85;40.79
24996;BME280;13016;52.162;21.034;2023-02-12T10:28:22;102421.71;;;9.73;40.75
24996;BME280;13016;52.162;21.034;2023-02-12T10:33:29;102430.37;;;9.73;41.10
24996;BME280;13016;52.162;21.034;2023-02-12T10:36:02;102431.88;;;9.82;40.77
24996;BME280;13016;52.162;21.034;2023-02-12T10:38:35;102430.10;;;9.55;40.81
24996;BME280;13016;52.162;21.034;2023-02-12T10:41:04;102424.83;;;9.61;40.94
24996;BME280;13016;52.162;21.034;2023-02-12T10:43:29;102424.23;;;9.64;40.93
24996;BME280;13016;52.162;21.034;2023-02-12T10:45:55;102431.00;;;9.68;41.12
24996;BME280;13016;52.162;21.034;2023-02-12T10:48:23;102423.73;;;9.62;40.63
24996;BME280;13016;52.162;21.034;2023-02-12T10:53:38;102421.67;;;9.39;41.39
24996;BME280;13016;52.162;21.034;2023-02-12T10:56:18;102421.65;;;9.55;41.37
24996;BME280;13016;52.162;21.034;2023-02-12T10:59:00;102418.23;;;9.78;41.06
24996;BME280;13016;52.162;21.034;2023-02-12T11:01:29;102413.59;;;9.94;41.49
24996;BME280;13016;52.162;21.034;2023-02-12T11:03:57;102414.36;;;9.78;41.16
24996;BME280;13016;52.162;21.034;2023-02-12T11:06:27;102414.87;;;9.86;41.26
24996;BME280;13016;52.162;21.034;2023-02-12T11:08:54;102417.25;;;9.75;41.08
24996;BME280;13016;52.162;21.034;2023-02-12T11:52:06;102396.10;;;10.29;41.87
24996;BME280;13016;52.162;21.034;2023-02-12T12:24:27;102394.15;;;10.48;42.04
24996;BME280;13016;52.162;21.034;2023-02-12T13:02:01;102368.40;;;11.11;40.11
24996;BME280;13016;52.162;21.034;2023-02-12T14:53:37;102358.23;;;9.33;46.24
24996;BME280;13016;52.162;21.034;2023-02-12T15:37:51;102372.91;;;9.08;46.09
24996;BME280;13016;52.162;21.034;2023-02-12T17:43:53;102367.36;;;8.82;48.97
24996;BME280;13016;52.162;21.034;2023-02-12T18:27:17;102369.23;;;7.69;52.71
24996;BME280;13016;52.162;21.034;2023-02-12T18:29:50;102357.73;;;7.64;52.50
24996;BME280;13016;52.162;21.034;2023-02-12T18:32:32;102355.59;;;7.56;52.92
24996;BME280;13016;52.162;21.034;2023-02-12T18:34:58;102348.99;;;7.51;53.46
24996;BME280;13016;52.162;21.034;2023-02-12T18:37:23;102343.59;;;7.28;54.13
24996;BME280;13016;52.162;21.034;2023-02-12T18:39:50;102340.54;;;7.21;54.77
24996;BME280;13016;52.162;21.034;2023-02-12T18:42:17;102344.17;;;7.24;55.07
24996;BME280;13016;52.162;21.034;2023-02-12T18:44:43;102351.78;;;7.32;55.13
24996;BME280;13016;52.162;21.034;2023-02-12T18:47:08;102347.89;;;7.23;55.18
24996;BME280;13016;52.162;21.034;2023-02-12T18:49:35;102343.27;;;7.26;55.74
24996;BME280;13016;52.162;21.034;2023-02-12T18:52:03;102337.29;;;7.37;55.74
24996;BME280;13016;52.162;21.034;2023-02-12T18:54:30;102343.38;;;7.40;55.79
24996;BME280;13016;52.162;21.034;2023-02-12T18:56:56;102335.33;;;7.40;56.01
24996;BME280;13016;52.162;21.034;2023-02-12T18:59:22;102332.39;;;7.47;56.30
24996;BME280;13016;52.162;21.034;2023-02-12T19:01:50;102328.52;;;7.47;56.38
24996;BME280;13016;52.162;21.034;2023-02-12T19:04:21;102332.60;;;7.45;56.41
24996;BME280;13016;52.162;21.034;2023-02-12T19:06:50;102330.11;;;7.56;56.66
24996;BME280;13016;52.162;21.034;2023-02-12T19:09:18;102329.13;;;7.62;56.49
24996;BME280;13016;52.162;21.034;2023-02-12T19:11:47;102326.93;;;7.66;56.49
24996;BME280;13016;52.162;21.034;2023-02-12T19:14:14;102329.20;;;7.77;56.45
24996;BME280;13016;52.162;21.034;2023-02-12T19:16:40;102323.14;;;7.72;56.10
24996;BME280;13016;52.162;21.034;2023-02-12T19:19:05;102323.91;;;7.69;56.32
24996;BME280;13016;52.162;21.034;2023-02-12T19:21:31;102327.09;;;7.77;56.38
24996;BME280;13016;52.162;21.034;2023-02-12T19:23:59;102325.96;;;7.81;56.35
24996;BME280;13016;52.162;21.034;2023-02-12T19:26:26;102323.52;;;7.80;56.14
24996;BME280;13016;52.162;21.034;2023-02-12T19:28:51;102324.11;;;7.76;56.24
24996;BME280;13016;52.162;21.034;2023-02-12T19:31:24;102323.95;;;7.76;56.27
24996;BME280;13016;52.162;21.034;2023-02-12T19:33:55;102321.04;;;7.73;56.55
24996;BME280;13016;52.162;21.034;2023-02-12T19:36:42;102321.11;;;7.86;56.51
24996;BME280;13016;52.162;21.034;2023-02-12T19:39:24;102317.96;;;7.95;56.36
24996;BME280;13016;52.162;21.034;2023-02-12T19:42:09;102311.10;;;7.95;56.52
24996;BME280;13016;52.162;21.034;2023-02-12T19:44:36;102306.92;;;8.02;56.43
24996;BME280;13016;52.162;21.034;2023-02-12T19:47:02;102305.04;;;8.00;56.40
24996;BME280;13016;52.162;21.034;2023-02-12T19:49:32;102304.25;;;8.04;56.57
24996;BME280;13016;52.162;21.034;2023-02-12T19:52:02;102303.85;;;7.97;56.83
24996;BME280;13016;52.162;21.034;2023-02-12T19:54:30;102298.38;;;8.08;56.91
24996;BME280;13016;52.162;21.034;2023-02-12T19:56:55;102297.06;;;8.22;57.01
24996;BME280;13016;52.162;21.034;2023-02-12T19:59:23;102297.63;;;8.29;56.83
24996;BME280;13016;52.162;21.034;2023-02-12T20:01:50;102298.45;;;8.31;56.62
24996;BME280;13016;52.162;21.034;2023-02-12T20:04:23;102293.80;;;8.00;57.11
24996;BME280;13016;52.162;21.034;2023-02-12T20:07:25;102296.49;;;8.14;57.28
24996;BME280;13016;52.162;21.034;2023-02-12T20:10:31;102297.80;;;8.19;57.45
24996;BME280;13016;52.162;21.034;2023-02-12T20:13:16;102291.58;;;8.32;57.22
24996;BME280;13016;52.162;21.034;2023-02-12T20:16:09;102293.48;;;8.34;57.20
24996;BME280;13016;52.162;21.034;2023-02-12T20:18:52;102296.00;;;8.39;57.16
24996;BME280;13016;52.162;21.034;2023-02-12T20:21:34;102291.56;;;8.41;57.41
24996;BME280;13016;52.162;21.034;2023-02-12T20:23:59;102292.77;;;8.50;57.68
24996;BME280;13016;52.162;21.034;2023-02-12T20:26:36;102295.66;;;8.55;57.38
24996;BME280;13016;52.162;21.034;2023-02-12T20:29:20;102292.55;;;8.52;57.24
24996;BME280;13016;52.162;21.034;2023-02-12T20:31:50;102292.61;;;8.57;57.46
24996;BME280;13016;52.162;21.034;2023-02-12T20:34:34;102296.11;;;8.66;57.64
24996;BME280;13016;52.162;21.034;2023-02-12T20:36:59;102291.29;;;8.54;57.48
24996;BME280;13016;52.162;21.034;2023-02-12T20:39:26;102290.17;;;8.64;57.87
24996;BME280;13016;52.162;21.034;2023-02-12T20:41:52;102289.87;;;8.77;57.81
24996;BME280;13016;52.162;21.034;2023-02-12T20:44:19;102283.76;;;8.82;57.62
24996;BME280;13016;52.162;21.034;2023-02-12T20:46:47;102278.45;;;8.76;57.64
24996;BME280;13016;52.162;21.034;2023-02-12T20:49:14;102281.88;;;8.73;57.57
24996;BME280;13016;52.162;21.034;2023-02-12T20:51:42;102273.61;;;8.65;57.64
24996;BME280;13016;52.162;21.034;2023-02-12T20:54:08;102266.95;;;8.48;58.23
24996;BME280;13016;52.162;21.034;2023-02-12T20:56:35;102268.27;;;8.52;58.83